Time;durP1;ratioP1;P1;durP2;ratioP2;P2;SDS_P1;SDS_P2;PMS_P1;PMS_P2;Temp;Humidity;BMP_temperature;BMP_pressure;BME280_temperature;BME280_humidity;BME280_pressure;Samples;Min_cycle;Max_cycle;Signal;HPM_P1;HPM_P2
2022/08/04 00:03:21;;;;;;;2.45;2.03;;;;;;;22.85;43.71;99919.34;7633770;32;40198;-73
2022/08/04 00:07:52;;;;;;;4.62;1.92;;;;;;;22.69;43.58;99921.22;7633637;32;41150;-73
2022/08/04 00:12:10;;;;;;;3.62;2.30;;;;;;;22.74;42.72;99909.06;7633691;32;38611;-73
2022/08/04 00:16:28;;;;;;;2.95;2.00;;;;;;;22.83;41.96;99907.75;7633686;32;37285;-75
2022/08/04 00:20:57;;;;;;;5.25;1.90;;;;;;;22.75;42.64;99913.44;7633458;32;40193;-74
2022/08/04 00:25:14;;;;;;;2.83;1.80;;;;;;;22.70;43.50;99900.63;7620122;32;39642;-75
2022/08/04 00:29:30;;;;;;;2.33;2.05;;;;;;;22.88;43.40;99901.94;7633482;32;37936;-75
2022/08/04 00:33:47;;;;;;;3.00;1.98;;;;;;;23.12;42.33;99905.81;7619976;32;37224;-73
2022/08/04 00:38:04;;;;;;;2.22;1.60;;;;;;;22.94;40.03;99910.84;7633467;32;40437;-74
2022/08/04 00:42:48;;;;;;;5.22;2.03;;;;;;;23.02;38.97;99909.06;7633562;32;40880;-75
2022/08/04 00:47:17;;;;;;;5.25;2.10;;;;;;;23.00;38.81;99917.78;7633109;32;38742;-76
2022/08/04 00:52:25;;;;;;;3.25;2.20;;;;;;;23.09;38.88;99917.66;7632478;32;37195;-76
2022/08/04 00:57:10;;;;;;;2.42;1.80;;;;;;;23.29;37.83;99923.38;7589769;32;39453;-75
2022/08/04 01:02:00;;;;;;;5.75;2.00;;;;;;;23.32;37.10;99920.69;7605781;32;40423;-75
2022/08/04 01:06:39;;;;;;;2.95;2.28;;;;;;;23.10;39.03;99919.28;7606958;32;37838;-74
2022/08/04 01:10:59;;;;;;;3.22;2.45;;;;;;;23.26;39.68;99924.87;7607096;32;36761;-74
2022/08/04 01:15:21;;;;;;;3.05;2.08;;;;;;;23.28;39.74;99917.00;7606907;32;39416;-74
2022/08/04 01:20:00;;;;;;;2.67;2.20;;;;;;;23.22;39.01;99924.00;7619404;32;39996;-75
2022/08/04 01:24:37;;;;;;;2.60;2.40;;;;;;;23.27;40.61;99922.91;7632562;32;38737;-73
2022/08/04 01:29:10;;;;;;;2.60;2.08;;;;;;;23.42;40.13;99922.13;7621434;32;37127;-74
2022/08/04 01:33:33;;;;;;;4.57;2.03;;;;;;;23.22;42.36;99921.22;7632702;32;40095;-74
2022/08/04 01:38:23;;;;;;;3.17;2.30;;;;;;;23.03;44.97;99922.63;7632230;32;40238;-75
2022/08/04 01:42:40;;;;;;;3.42;2.35;;;;;;;22.92;47.25;99918.75;7632299;32;37986;-74
2022/08/04 01:46:56;;;;;;;4.97;2.62;;;;;;;22.93;46.24;99922.31;7632339;32;37797;-75
2022/08/04 01:51:13;;;;;;;3.47;2.65;;;;;;;22.93;43.58;99927.88;7618861;32;39397;-73
2022/08/04 01:55:29;;;;;;;2.40;2.17;;;;;;;23.18;42.97;99917.50;7632395;32;40000;-73
2022/08/04 02:00:06;;;;;;;4.95;2.70;;;;;;;23.19;42.49;99916.34;7631573;32;38883;-76
2022/08/04 02:04:22;;;;;;;4.53;2.50;;;;;;;23.25;42.10;99920.50;7631882;32;37087;-72
2022/08/04 02:09:04;;;;;;;4.40;2.90;;;;;;;23.31;42.03;99912.72;7632386;32;39297;-74
2022/08/04 02:13:50;;;;;;;4.35;2.97;;;;;;;23.20;42.41;99916.00;7620595;32;40700;-74
2022/08/04 02:18:13;;;;;;;3.70;2.75;;;;;;;23.11;43.23;99911.75;7626127;32;37659;-75
2022/08/04 02:22:32;;;;;;;;;;;;;;;22.99;43.39;99909.78;7618467;32;37437;-74
2022/08/04 02:26:49;;;;;;;6.78;3.00;;;;;;;22.98;44.26;99913.75;7632265;32;39762;-74
2022/08/04 02:31:22;;;;;;;3.05;2.42;;;;;;;22.80;44.13;99907.63;7618985;32;39862;-74
2022/08/04 02:35:39;;;;;;;5.00;3.05;;;;;;;22.64;45.84;99904.78;7632058;32;37976;-74
2022/08/04 02:39:57;;;;;;;5.80;2.83;;;;;;;23.02;43.55;99903.50;7632030;32;36744;-74
2022/08/04 02:44:19;;;;;;;5.78;3.03;;;;;;;23.07;42.96;99906.06;7618225;32;39832;-74
2022/08/04 02:48:35;;;;;;;6.07;3.00;;;;;;;23.32;42.26;99900.41;7618893;32;39965;-74
2022/08/04 02:52:52;;;;;;;3.58;2.70;;;;;;;23.29;42.24;99906.69;7617716;32;37560;-75
2022/08/04 02:57:10;;;;;;;7.47;3.20;;;;;;;23.37;41.71;99902.91;7631647;32;37813;-73
2022/08/04 03:01:26;;;;;;;5.95;3.37;;;;;;;23.34;41.93;99903.66;7631789;32;38263;-74
2022/08/04 03:06:04;;;;;;;5.32;2.75;;;;;;;23.40;41.85;99903.06;7631451;32;40065;-74
2022/08/04 03:10:56;;;;;;;4.07;2.70;;;;;;;22.96;46.27;99910.50;7618302;32;38056;-75
2022/08/04 03:15:15;;;;;;;4.62;2.97;;;;;;;22.90;49.61;99901.59;7630584;32;37596;-75
2022/08/04 03:19:40;;;;;;;6.72;2.45;;;;;;;22.75;49.48;99905.09;7631307;32;40153;-75
2022/08/04 03:24:21;;;;;;;7.35;2.75;;;;;;;22.48;49.89;99902.72;7630985;32;40701;-75
2022/08/04 03:28:59;;;;;;;5.10;3.20;;;;;;;22.28;50.59;99909.22;7630808;32;38783;-75
2022/08/04 03:33:24;;;;;;;5.28;3.00;;;;;;;22.13;50.61;99905.16;7631140;32;38267;-75
2022/08/04 03:38:24;;;;;;;6.22;3.58;;;;;;;22.02;50.05;99906.75;7631021;32;39306;-75
2022/08/04 03:43:37;;;;;;;6.03;3.00;;;;;;;22.03;48.60;99909.19;7523476;33;40739;-74
2022/08/04 03:48:37;;;;;;;3.70;2.60;;;;;;;22.15;48.96;99911.19;7562046;33;41468;-74
2022/08/04 03:53:24;;;;;;;5.87;3.25;;;;;;;22.05;50.71;99906.09;7606486;32;37194;-75
2022/08/04 03:58:01;;;;;;;7.87;3.33;;;;;;;21.96;50.90;99913.72;7630472;32;40149;-75
2022/08/04 04:02:39;;;;;;;3.80;2.95;;;;;;;22.05;49.88;99906.88;7630094;32;39999;-76
2022/08/04 04:07:23;;;;;;;4.85;3.10;;;;;;;22.23;48.00;99912.19;7618677;32;38458;-76
2022/08/04 04:12:09;;;;;;;6.10;2.90;;;;;;;22.57;46.36;99915.69;7629825;32;37891;-75
2022/08/04 04:16:46;;;;;;;9.52;3.15;;;;;;;22.98;46.90;99919.28;7629556;32;38974;-75
2022/08/04 04:21:33;;;;;;;5.12;3.20;;;;;;;23.17;46.32;99910.34;7629696;32;40839;-74
2022/08/04 04:26:05;;;;;;;4.93;3.30;;;;;;;23.11;46.41;99920.91;7631644;32;38433;-74
2022/08/04 04:31:00;;;;;;;5.60;3.58;;;;;;;23.18;46.21;99915.53;7621269;32;36912;-75
2022/08/04 04:35:48;;;;;;;6.40;3.30;;;;;;;23.30;46.13;99919.41;7633237;32;39423;-75
2022/08/04 04:40:31;;;;;;;4.53;3.35;;;;;;;23.43;45.47;99919.00;7633019;32;40727;-74
2022/08/04 04:45:23;;;;;;;3.72;2.78;;;;;;;23.64;45.42;99926.31;7621774;32;37929;-75
2022/08/04 04:50:01;;;;;;;5.43;3.20;;;;;;;23.73;44.85;99928.94;7621231;32;37234;-75
2022/08/04 04:54:37;;;;;;;7.22;3.17;;;;;;;23.84;44.75;99941.19;7621243;32;39850;-76
2022/08/04 04:58:54;;;;;;;8.65;3.35;;;;;;;23.93;44.62;99941.81;7632835;32;40812;-74
2022/08/04 05:03:29;;;;;;;5.53;3.22;;;;;;;23.88;44.92;99942.09;7619706;32;38022;-76
2022/08/04 05:08:14;;;;;;;8.48;3.28;;;;;;;24.05;45.18;99940.94;7633061;32;37192;-75
2022/08/04 05:13:27;;;;;;;5.10;3.20;;;;;;;24.19;44.72;99937.69;7621144;32;39753;-75
2022/08/04 05:18:05;;;;;;;;;;;;;;;24.31;44.56;99939.56;7632880;32;39950;-74
2022/08/04 05:22:24;;;;;;;4.65;3.17;;;;;;;24.35;44.64;99952.44;7632795;32;38287;-75
2022/08/04 05:26:55;;;;;;;4.50;3.00;;;;;;;24.44;44.34;99948.63;7631983;32;37358;-76
2022/08/04 05:31:19;;;;;;;4.28;2.80;;;;;;;24.60;45.61;99941.09;7632736;32;39003;-75
2022/08/04 05:35:48;;;;;;;8.50;2.87;;;;;;;24.77;45.26;99945.44;7619577;32;39968;-75
2022/08/04 05:40:25;;;;;;;7.57;3.10;;;;;;;24.91;45.88;99954.13;7621291;32;39262;-73
2022/08/04 05:44:42;;;;;;;7.95;3.00;;;;;;;24.79;47.12;99956.25;7619308;32;37001;-75
2022/08/04 05:49:05;;;;;;;4.32;2.92;;;;;;;25.00;46.74;99962.28;7619977;32;40182;-74
2022/08/04 05:53:22;;;;;;;6.15;3.15;;;;;;;25.24;46.40;99957.59;7632723;32;39959;-74
2022/08/04 05:57:42;;;;;;;8.00;3.25;;;;;;;25.45;43.71;99968.41;7619006;32;38032;-74
2022/08/04 06:02:00;;;;;;;6.53;2.83;;;;;;;25.67;44.67;99958.47;7619152;32;37150;-74
2022/08/04 06:06:18;;;;;;;6.68;2.60;;;;;;;25.70;44.96;99963.31;7631946;32;38601;-76
2022/08/04 06:10:37;;;;;;;4.87;2.83;;;;;;;25.90;43.19;99966.84;7632024;32;40088;-75
2022/08/04 06:14:57;;;;;;;6.95;2.65;;;;;;;26.08;45.43;99960.78;7619131;32;37965;-70
2022/08/04 06:19:14;;;;;;;4.32;2.90;;;;;;;26.38;41.29;99964.50;7619118;32;36111;-70
2022/08/04 06:23:51;;;;;;;8.05;2.65;;;;;;;26.69;39.80;99961.81;7605811;32;40488;-70
2022/08/04 06:28:18;;;;;;;5.00;2.70;;;;;;;26.81;37.32;99963.56;7605974;32;40070;-71
2022/08/04 06:32:35;;;;;;;5.62;2.72;;;;;;;26.96;38.02;99957.78;7605741;32;38639;-72
2022/08/04 06:36:57;;;;;;;5.50;2.50;;;;;;;27.20;36.35;99963.28;7606066;32;37035;-70
2022/08/04 06:41:13;;;;;;;6.05;2.33;;;;;;;27.37;34.97;99956.31;7592439;32;39531;-72
2022/08/04 06:45:30;;;;;;;2.85;2.10;;;;;;;27.23;34.89;99963.31;7592388;32;40027;-71
2022/08/04 06:49:51;;;;;;;4.53;1.90;;;;;;;27.13;34.27;99961.19;7604414;32;38852;-73
2022/08/04 06:54:28;;;;;;;3.35;2.05;;;;;;;27.89;33.27;99957.28;7605271;32;38364;-72
2022/08/04 06:58:47;;;;;;;4.28;2.28;;;;;;;27.98;32.45;99957.78;7592160;32;40220;-73
2022/08/04 07:03:04;;;;;;;3.12;2.08;;;;;;;28.19;32.22;99957.16;7605299;32;40554;-72
2022/08/04 07:07:22;;;;;;;5.75;2.20;;;;;;;28.28;31.22;99954.03;7605364;32;38872;-72
2022/08/04 07:11:59;;;;;;;3.58;1.80;;;;;;;28.71;31.46;99951.56;7593933;32;37378;-72
2022/08/04 07:16:17;;;;;;;2.62;2.00;;;;;;;28.79;30.65;99956.03;7590993;32;39335;-72
2022/08/04 07:20:33;;;;;;;4.80;2.40;;;;;;;28.86;30.40;99955.25;7606012;32;39929;-75
2022/08/04 07:24:55;;;;;;;11.35;2.50;;;;;;;29.02;31.17;99952.12;7617741;32;38503;-73
2022/08/04 07:29:11;;;;;;;3.03;1.90;;;;;;;29.18;30.00;99949.84;7630710;32;36828;-73
2022/08/04 07:33:29;;;;;;;2.72;2.08;;;;;;;29.00;29.35;99946.13;7630700;32;39938;-74
2022/08/04 07:37:45;;;;;;;4.15;1.98;;;;;;;29.12;30.39;99948.56;7617106;32;40801;-73
2022/08/04 07:42:02;;;;;;;5.20;2.28;;;;;;;29.46;29.40;99945.53;7610712;32;37053;-75
2022/08/04 07:46:18;;;;;;;3.50;2.00;;;;;;;29.76;29.23;99944.41;7629248;32;37131;-80
2022/08/04 07:50:34;;;;;;;7.03;1.85;;;;;;;29.86;28.76;99940.81;7629318;32;39547;-79
2022/08/04 07:54:50;;;;;;;4.47;1.83;;;;;;;30.08;27.77;99935.19;7629407;32;39955;-75
2022/08/04 07:59:07;;;;;;;3.47;1.83;;;;;;;30.19;28.09;99926.75;7630273;32;37942;-77
2022/08/04 08:03:24;;;;;;;3.78;1.73;;;;;;;30.31;27.72;99915.91;7632689;32;37918;-80
2022/08/04 08:07:40;;;;;;;4.15;2.40;;;;;;;30.70;27.67;99922.66;7633233;32;40074;-76
2022/08/04 08:12:10;;;;;;;4.60;1.80;;;;;;;30.03;27.31;99927.16;7620452;32;40875;-77
2022/08/04 08:16:46;;;;;;;5.32;2.00;;;;;;;30.25;28.15;99923.16;7621949;32;38249;-78
2022/08/04 08:21:03;;;;;;;3.20;1.98;;;;;;;30.96;27.51;99914.97;7632152;32;37214;-75
2022/08/04 08:25:19;;;;;;;4.22;2.35;;;;;;;30.76;27.10;99914.63;7632578;32;39403;-76
2022/08/04 08:29:36;;;;;;;3.22;2.08;;;;;;;31.16;27.15;99916.09;7619816;32;40757;-80
2022/08/04 08:33:52;;;;;;;3.20;2.10;;;;;;;31.31;26.81;99911.22;7632394;32;37884;-78
2022/08/04 08:38:10;;;;;;;5.30;2.20;;;;;;;31.35;26.49;99903.53;7619849;32;37028;-77
2022/08/04 08:42:52;;;;;;;2.40;1.95;;;;;;;31.28;26.85;99914.84;7619156;32;39065;-78
2022/08/04 08:47:45;;;;;;;4.75;1.90;;;;;;;32.09;26.45;99911.13;7596459;32;39807;-77
2022/08/04 08:52:46;;;;;;;3.95;2.28;;;;;;;32.37;26.33;99904.41;7606790;32;38784;-77
2022/08/04 08:57:38;;;;;;;3.33;2.00;;;;;;;32.34;25.03;99914.53;7606552;32;36779;-75
2022/08/04 09:02:23;;;;;;;3.92;1.85;;;;;;;32.54;24.69;99911.88;7605953;32;37946;-76
2022/08/04 09:07:04;;;;;;;4.53;2.12;;;;;;;32.74;25.06;99912.09;7628465;32;39706;-79
2022/08/04 09:11:24;;;;;;;4.00;1.85;;;;;;;32.92;24.73;99913.91;7629811;32;38645;-78
2022/08/04 09:16:01;;;;;;;3.37;2.00;;;;;;;33.07;24.53;99903.25;7632659;32;37458;-77
2022/08/04 09:20:21;;;;;;;5.05;2.30;;;;;;;32.79;24.45;99910.03;7620558;32;40180;-78
2022/08/04 09:24:56;;;;;;;2.65;1.75;;;;;;;33.29;24.79;99910.22;7632930;32;39653;-79
2022/08/04 09:29:33;;;;;;;3.40;2.15;;;;;;;33.63;24.01;99902.87;7632736;32;38750;-79
2022/08/04 09:34:10;;;;;;;2.85;1.73;;;;;;;33.55;23.90;99899.38;7619760;32;36907;-79
2022/08/04 09:38:50;;;;;;;6.05;2.10;;;;;;;33.96;23.57;99897.53;7620301;32;39337;-75
2022/08/04 09:43:35;;;;;;;7.07;3.97;;;;;;;34.17;22.61;99890.72;7632989;32;40240;-80
2022/08/04 09:48:21;;;;;;;3.47;1.92;;;;;;;34.01;21.30;99897.84;7631885;32;37857;-78
2022/08/04 09:53:10;;;;;;;4.95;2.30;;;;;;;34.44;22.19;99879.31;7619770;32;37770;-79
2022/08/04 09:57:38;;;;;;;2.30;1.77;;;;;;;34.65;22.01;99874.47;7621060;32;40133;-77
2022/08/04 10:01:57;;;;;;;2.72;2.00;;;;;;;34.86;21.27;99876.91;7632541;32;40035;-81
2022/08/04 10:06:23;;;;;;;2.85;1.80;;;;;;;34.85;20.45;99871.69;7619154;32;38687;-78
2022/08/04 10:10:55;;;;;;;6.55;2.00;;;;;;;34.88;19.83;99862.31;7631728;32;37266;-79
2022/08/04 10:15:53;;;;;;;5.07;2.00;;;;;;;34.60;20.47;99870.13;7620488;32;40222;-76
2022/08/04 10:20:47;;;;;;;4.15;2.35;;;;;;;34.63;20.29;99868.44;7631308;32;40096;-77
2022/08/04 10:25:47;;;;;;;3.75;2.42;;;;;;;34.74;20.80;99858.53;7631408;32;38806;-76
2022/08/04 10:30:23;;;;;;;2.03;1.73;;;;;;;34.95;20.06;99867.81;7631029;32;37786;-73
2022/08/04 10:34:59;;;;;;;3.62;1.67;;;;;;;35.70;21.61;99853.97;7630438;32;39888;-76
2022/08/04 10:39:18;;;;;;;3.87;2.20;;;;;;;36.31;19.53;99845.94;7630840;32;39536;-77
2022/08/04 10:44:28;;;;;;;3.08;2.15;;;;;;;36.68;19.01;99846.53;7631284;32;38025;-77
2022/08/04 10:49:06;;;;;;;5.37;1.90;;;;;;;36.36;18.76;99837.72;7631611;32;37016;-77
2022/08/04 10:53:24;;;;;;;3.42;1.65;;;;;;;36.30;18.85;99835.84;7618801;32;39398;-75
2022/08/04 10:58:13;;;;;;;10.98;2.92;;;;;;;36.61;18.60;99825.63;7618308;32;39150;-76
2022/08/04 11:02:52;;;;;;;4.03;1.90;;;;;;;37.30;18.03;99824.38;7605045;32;37469;-79
2022/08/04 11:07:10;;;;;;;4.87;2.22;;;;;;;36.11;18.51;99827.00;7631446;32;36992;-77
2022/08/04 11:11:51;;;;;;;2.80;1.83;;;;;;;36.07;18.17;99820.63;7618172;32;39058;-78
2022/08/04 11:16:43;;;;;;;4.65;2.37;;;;;;;36.05;18.73;99817.47;7620042;32;40840;-77
2022/08/04 11:21:33;;;;;;;32.00;4.12;;;;;;;36.18;18.38;99811.84;7631070;32;37533;-77
2022/08/04 11:26:10;;;;;;;3.47;2.17;;;;;;;36.80;18.42;99809.66;7619220;32;37553;-77
2022/08/04 11:30:40;;;;;;;6.90;1.92;;;;;;;37.52;17.78;99807.44;7631151;32;40128;-78
2022/08/04 11:35:00;;;;;;;5.15;2.12;;;;;;;37.14;17.64;99808.22;7618059;32;40035;-78
2022/08/04 11:39:32;;;;;;;4.90;2.53;;;;;;;37.12;17.92;99807.06;7617643;32;37782;-78
2022/08/04 11:43:59;;;;;;;5.32;1.85;;;;;;;37.44;17.65;99796.75;7630704;32;36859;-78
2022/08/04 11:48:35;;;;;;;3.22;1.98;;;;;;;37.20;17.66;99797.09;7618141;32;40111;-78
2022/08/04 11:52:53;;;;;;;1.87;1.67;;;;;;;37.44;17.31;99794.69;7617943;32;40579;-78
2022/08/04 11:57:10;;;;;;;6.43;2.00;;;;;;;37.78;17.56;99792.41;7617013;32;37653;-77
2022/08/04 12:01:51;;;;;;;3.55;2.10;;;;;;;38.71;16.72;99785.41;7616804;32;37252;-79
2022/08/04 12:06:51;;;;;;;7.78;2.12;;;;;;;38.93;15.83;99777.59;7630014;32;40194;-78
2022/08/04 12:11:58;;;;;;;6.22;2.40;;;;;;;38.88;15.42;99772.50;7610343;32;39927;-78
2022/08/04 12:16:34;;;;;;;6.10;1.98;;;;;;;39.36;16.41;99764.47;7629761;32;37848;-77
2022/08/04 12:21:00;;;;;;;3.05;2.03;;;;;;;39.31;15.22;99765.09;7629536;32;37057;-77
2022/08/04 12:25:35;;;;;;;4.87;2.15;;;;;;;38.79;15.92;99761.88;7616448;32;40154;-77
2022/08/04 12:29:51;;;;;;;5.47;2.03;;;;;;;38.93;15.17;99751.94;7616575;32;39985;-78
2022/08/04 12:34:45;;;;;;;7.65;2.30;;;;;;;38.80;15.55;99754.09;7627397;32;38272;-77
2022/08/04 12:39:18;;;;;;;3.05;2.10;;;;;;;38.40;15.93;99744.22;7627189;32;37785;-78
2022/08/04 12:43:40;;;;;;;6.20;1.98;;;;;;;38.65;15.75;99748.97;7626527;32;38357;-78
2022/08/04 12:48:02;;;;;;;3.15;2.00;;;;;;;37.96;16.14;99749.87;7630589;32;40817;-77
2022/08/04 12:52:20;;;;;;;4.30;1.92;;;;;;;38.23;16.87;99745.69;7633197;32;38674;-76
2022/08/04 12:56:45;;;;;;;3.47;2.15;;;;;;;37.12;16.07;99747.41;7620978;32;38058;-76
2022/08/04 13:01:04;;;;;;;2.05;1.80;;;;;;;38.01;17.45;99735.06;7633198;32;39844;-77
2022/08/04 13:05:41;;;;;;;2.42;1.90;;;;;;;38.36;15.88;99732.19;7621685;32;40279;-77
2022/08/04 13:09:59;;;;;;;4.45;1.85;;;;;;;38.32;16.18;99725.81;7632819;32;37952;-77
2022/08/04 13:14:17;;;;;;;5.28;2.20;;;;;;;37.62;16.11;99720.19;7619453;32;36725;-80
2022/08/04 13:18:47;;;;;;;2.55;1.87;;;;;;;37.65;16.77;99712.78;7619587;32;40172;-79
2022/08/04 13:23:04;;;;;;;5.22;2.08;;;;;;;38.90;16.13;99717.91;7616614;32;40171;-77
2022/08/04 13:27:24;;;;;;;2.85;2.00;;;;;;;38.97;15.77;99711.91;7631893;32;36628;-76
2022/08/04 13:31:44;;;;;;;4.55;1.80;;;;;;;39.79;14.03;99713.34;7618288;32;37045;-77
2022/08/04 13:36:08;;;;;;;2.65;1.90;;;;;;;39.80;13.82;99704.31;7617526;32;39922;-78
2022/08/04 13:40:27;;;;;;;3.87;1.83;;;;;;;40.44;14.74;99690.47;7631953;32;40844;-78
2022/08/04 13:44:52;;;;;;;3.00;2.10;;;;;;;40.63;14.65;99683.41;7616668;32;38485;-77
2022/08/04 13:49:13;;;;;;;4.75;2.08;;;;;;;41.07;14.12;99694.34;7625913;32;37790;-78
2022/08/04 13:54:00;;;;;;;3.67;1.85;;;;;;;41.22;13.64;99682.94;7629477;32;40207;-79
2022/08/04 13:58:24;;;;;;;3.12;1.92;;;;;;;41.79;14.19;99679.22;7630231;32;38666;-78
2022/08/04 14:02:44;;;;;;;7.30;1.77;;;;;;;41.60;13.92;99672.84;7617854;32;37451;-76
2022/08/04 14:07:14;;;;;;;2.65;1.90;;;;;;;41.72;13.38;99676.72;7618079;32;36988;-76
2022/08/04 14:11:47;;;;;;;3.67;2.17;;;;;;;42.10;13.26;99674.34;7619590;32;39472;-77
2022/08/04 14:16:23;;;;;;;3.20;1.90;;;;;;;42.17;12.03;99656.75;7630565;32;40312;-78
2022/08/04 14:20:56;;;;;;;4.28;1.75;;;;;;;41.58;13.17;99658.22;7630809;32;37960;-79
2022/08/04 14:25:14;;;;;;;6.10;2.05;;;;;;;41.66;13.11;99658.66;7618078;32;37210;-80
2022/08/04 14:29:38;;;;;;;7.40;2.25;;;;;;;41.42;12.64;99656.63;7631138;32;39197;-77
2022/08/04 14:33:54;;;;;;;5.22;1.65;;;;;;;41.82;13.13;99654.56;7630885;32;39943;-79
2022/08/04 14:38:18;;;;;;;2.58;1.73;;;;;;;41.83;12.77;99656.94;7630919;32;37661;-80
2022/08/04 14:42:45;;;;;;;5.37;2.12;;;;;;;41.52;13.38;99648.75;7630744;32;36745;-80
2022/08/04 14:47:10;;;;;;;3.72;1.92;;;;;;;42.02;12.59;99648.16;7629806;32;40055;-77
2022/08/04 14:51:33;;;;;;;5.45;2.10;;;;;;;41.95;12.76;99657.91;7631557;32;40849;-78
2022/08/04 14:55:58;;;;;;;3.78;2.10;;;;;;;41.85;12.50;99657.22;7631555;32;38063;-78
2022/08/04 15:00:27;;;;;;;5.57;2.25;;;;;;;41.76;12.34;99657.31;7618147;32;37036;-77
2022/08/04 15:04:44;;;;;;;10.20;2.35;;;;;;;41.37;13.26;99653.66;7631451;32;40563;-78
2022/08/04 15:09:05;;;;;;;3.33;1.73;;;;;;;41.43;13.36;99652.50;7616886;32;40744;-78
2022/08/04 15:13:21;;;;;;;;;;;;;;;41.31;13.02;99652.72;7631619;32;38432;-80
2022/08/04 15:17:38;;;;;;;4.25;2.03;;;;;;;41.51;12.93;99650.03;7631391;32;37578;-79
2022/08/04 15:21:54;;;;;;;7.80;1.95;;;;;;;41.07;12.66;99651.44;7630971;32;40140;-79
2022/08/04 15:26:14;;;;;;;3.58;2.03;;;;;;;41.25;13.77;99644.84;7617712;32;39951;-78
2022/08/04 15:30:31;;;;;;;4.53;1.98;;;;;;;41.42;13.07;99647.25;7630961;32;37934;-78
2022/08/04 15:34:50;;;;;;;3.97;2.08;;;;;;;40.96;13.82;99642.63;7617599;32;37153;-79
2022/08/04 15:39:19;;;;;;;5.80;2.17;;;;;;;41.20;12.66;99634.03;7631003;32;39354;-79
2022/08/04 15:44:05;;;;;;;4.65;2.00;;;;;;;41.00;13.99;99637.53;7618119;32;40886;-79
2022/08/04 15:48:24;;;;;;;2.60;1.80;;;;;;;40.93;12.65;99637.88;7621814;32;37603;-78
2022/08/04 15:53:00;;;;;;;2.60;1.83;;;;;;;40.76;13.32;99628.09;7620462;32;37707;-79
2022/08/04 15:57:58;;;;;;;2.95;1.90;;;;;;;40.82;13.14;99629.06;7630233;32;39553;-78
2022/08/04 16:02:32;;;;;;;3.25;2.12;;;;;;;40.93;13.02;99626.44;7617642;32;40733;-80
2022/08/04 16:06:49;;;;;;;4.12;2.17;;;;;;;40.50;13.01;99626.50;7629963;32;37981;-80
2022/08/04 16:11:05;;;;;;;9.73;2.12;;;;;;;39.92;13.91;99619.81;7629164;32;38269;-80
2022/08/04 16:15:44;;;;;;;5.25;2.12;;;;;;;39.81;14.04;99617.47;7629960;32;40180;-78
2022/08/04 16:20:11;;;;;;;4.07;2.17;;;;;;;39.38;14.26;99616.53;7629336;32;40699;-79
2022/08/04 16:24:39;;;;;;;3.95;1.92;;;;;;;39.67;14.49;99615.28;7633308;32;38750;-79
2022/08/04 16:28:56;;;;;;;4.32;2.10;;;;;;;39.70;14.51;99619.22;7632895;32;37848;-79
2022/08/04 16:33:13;;;;;;;6.55;2.60;;;;;;;39.40;14.30;99624.59;7632821;32;39336;-78
2022/08/04 16:37:37;;;;;;;5.90;2.30;;;;;;;39.04;14.46;99612.69;7608107;32;40968;-79
2022/08/04 16:41:53;;;;;;;4.18;2.12;;;;;;;39.04;14.65;99615.53;7632184;32;38012;-79
2022/08/04 16:46:10;;;;;;;5.35;2.00;;;;;;;38.78;14.60;99617.84;7619888;32;37783;-79
2022/08/04 16:50:55;;;;;;;5.70;2.47;;;;;;;38.75;16.00;99621.63;7632408;32;40056;-79
2022/08/04 16:55:29;;;;;;;3.30;2.20;;;;;;;38.58;14.98;99614.63;7619813;32;39998;-80
2022/08/04 16:59:51;;;;;;;3.85;2.22;;;;;;;38.42;15.44;99622.13;7632999;32;38381;-80
2022/08/04 17:04:07;;;;;;;3.30;2.10;;;;;;;38.04;16.09;99614.63;7632505;32;38443;-80
2022/08/04 17:08:26;;;;;;;6.12;2.00;;;;;;;37.79;16.15;99620.47;7633047;32;40547;-80
2022/08/04 17:12:45;;;;;;;4.57;2.00;;;;;;;37.63;16.38;99619.37;7619284;32;40095;-80
2022/08/04 17:17:03;;;;;;;3.28;2.05;;;;;;;37.32;16.97;99622.94;7632454;32;37666;-80
2022/08/04 17:21:25;;;;;;;;;;;;;;;37.27;17.28;99620.66;7632754;32;37443;-80
2022/08/04 17:25:52;;;;;;;2.85;2.20;;;;;;;37.16;17.88;99621.03;7632556;32;39459;-79
2022/08/04 17:30:26;;;;;;;4.75;2.22;;;;;;;36.83;18.70;99629.06;7632418;32;39974;-80
2022/08/04 17:34:55;;;;;;;7.40;2.58;;;;;;;36.58;18.88;99627.81;7631372;32;38708;-79
2022/08/04 17:39:19;;;;;;;4.80;2.28;;;;;;;36.26;19.47;99623.16;7619804;32;37126;-79
2022/08/04 17:44:00;;;;;;;4.47;2.40;;;;;;;35.89;20.20;99633.94;7621555;32;39798;-79
2022/08/04 17:48:22;;;;;;;5.07;2.12;;;;;;;35.61;20.53;99630.63;7631270;32;39768;-78
2022/08/04 17:52:39;;;;;;;4.93;2.30;;;;;;;35.23;21.29;99627.63;7632349;32;38924;-78
2022/08/04 17:57:12;;;;;;;4.07;2.08;;;;;;;34.80;22.29;99635.94;7632602;32;37974;-78
2022/08/04 18:01:38;;;;;;;28.83;3.45;;;;;;;34.46;22.53;99635.53;7632428;32;39442;-77
2022/08/04 18:06:14;;;;;;;6.50;2.22;;;;;;;34.19;22.92;99637.34;7621599;32;40743;-77
2022/08/04 18:10:42;;;;;;;7.82;2.37;;;;;;;33.78;23.18;99637.78;7632130;32;38759;-77
2022/08/04 18:15:27;;;;;;;15.20;2.40;;;;;;;33.45;24.11;99643.22;7632328;32;37075;-76
2022/08/04 18:20:00;;;;;;;6.07;2.45;;;;;;;32.91;25.35;99633.63;7626783;32;172196;-74
2022/08/04 18:24:16;;;;;;;4.10;2.65;;;;;;;32.75;25.94;99644.78;7632310;32;40937;-76
2022/08/04 18:28:33;;;;;;;4.95;2.80;;;;;;;32.46;26.39;99662.12;7632233;32;38066;-74
2022/08/04 18:32:49;;;;;;;13.68;5.82;;;;;;;32.22;26.45;99666.06;7632065;32;37900;-78
2022/08/04 18:37:25;;;;;;;10.27;4.60;;;;;;;32.09;26.44;99655.34;7631624;32;40963;-78
2022/08/04 18:42:01;;;;;;;15.07;3.40;;;;;;;31.91;26.69;99666.00;7631675;32;40054;-75
2022/08/04 18:46:19;;;;;;;8.23;4.00;;;;;;;31.70;26.85;99667.88;7631792;32;38782;-77
2022/08/04 18:50:36;;;;;;;24.30;17.67;;;;;;;31.49;27.33;99679.31;7631056;32;38139;-79
2022/08/04 18:55:15;;;;;;;10.82;6.90;;;;;;;31.32;27.21;99687.53;7628332;32;39752;-78
2022/08/04 18:59:51;;;;;;;7.97;3.92;;;;;;;31.26;27.50;99683.56;7627771;32;41213;-77
2022/08/04 19:04:09;;;;;;;7.65;4.43;;;;;;;31.07;28.17;99688.53;7630415;32;38294;-77
2022/08/04 19:08:45;;;;;;;9.18;5.55;;;;;;;30.93;28.64;99694.28;7630774;32;37162;-77
2022/08/04 19:13:02;;;;;;;7.15;3.20;;;;;;;30.76;29.05;99701.59;7630993;32;39055;-80
2022/08/04 19:17:39;;;;;;;8.00;2.83;;;;;;;30.49;29.75;99701.34;7628073;32;40277;-79
2022/08/04 19:22:12;;;;;;;21.05;4.45;;;;;;;30.57;29.06;99710.56;7627532;32;36952;-79
2022/08/04 19:26:49;;;;;;;5.68;2.90;;;;;;;30.23;30.04;99703.44;7614990;32;37539;-79
2022/08/04 19:31:07;;;;;;;8.15;3.00;;;;;;;30.02;30.47;99701.53;7628610;32;40181;-78
2022/08/04 19:35:24;;;;;;;5.50;2.60;;;;;;;29.86;30.70;99713.22;7628788;32;39273;-78
2022/08/04 19:39:44;;;;;;;4.50;2.78;;;;;;;29.75;30.78;99710.41;7628664;32;37861;-78
2022/08/04 19:44:04;;;;;;;5.60;2.60;;;;;;;29.61;31.14;99723.66;7628586;32;36979;-76
2022/08/04 19:48:26;;;;;;;13.15;6.32;;;;;;;29.52;31.57;99716.44;7628666;32;38068;-78
2022/08/04 19:52:45;;;;;;;8.45;5.55;;;;;;;29.45;31.35;99721.28;7615422;32;38575;-77
2022/08/04 19:57:07;;;;;;;8.43;4.63;;;;;;;29.38;30.79;99733.31;7628487;32;38705;-78
2022/08/04 20:01:26;;;;;;;6.40;3.10;;;;;;;29.28;31.88;99722.88;7618679;32;36900;-78
2022/08/04 20:05:58;;;;;;;4.93;2.58;;;;;;;28.97;32.63;99722.41;7631626;32;38277;-76
2022/08/04 20:10:17;;;;;;;5.30;2.85;;;;;;;28.82;33.05;99725.22;7633418;32;40055;-77
2022/08/04 20:14:39;;;;;;;4.28;2.70;;;;;;;28.80;32.93;99724.81;7633516;32;38002;-76
2022/08/04 20:18:58;;;;;;;7.75;3.03;;;;;;;28.72;32.92;99726.00;7632813;32;38108;-78
2022/08/04 20:23:19;;;;;;;3.95;2.47;;;;;;;28.67;32.71;99717.97;7631129;32;38481;-77
2022/08/04 20:27:57;;;;;;;3.08;2.35;;;;;;;28.75;32.62;99722.41;7630260;32;40833;-78
2022/08/04 20:32:20;;;;;;;4.22;2.72;;;;;;;28.61;33.04;99725.16;7630979;32;37959;-78
2022/08/04 20:36:40;;;;;;;4.43;2.58;;;;;;;28.41;33.65;99716.25;7631094;32;36281;-77
2022/08/04 20:41:05;;;;;;;8.10;3.85;;;;;;;28.38;33.38;99725.44;7629848;32;39340;-77
2022/08/04 20:45:21;;;;;;;7.28;3.30;;;;;;;28.06;35.16;99732.53;7632725;32;39999;-75
2022/08/04 20:49:37;;;;;;;5.35;2.80;;;;;;;27.95;35.92;99728.84;7632831;32;38061;-76
2022/08/04 20:53:53;;;;;;;7.75;3.28;;;;;;;27.93;35.69;99730.44;7628080;32;37101;-78
2022/08/04 20:58:10;;;;;;;6.10;2.60;;;;;;;27.75;35.90;99730.28;7630816;32;40161;-78
2022/08/04 21:02:26;;;;;;;5.15;3.12;;;;;;;27.60;35.99;99735.78;7630972;32;40159;-78
2022/08/04 21:06:43;;;;;;;5.43;3.17;;;;;;;27.67;36.26;99740.66;7628243;32;38173;-75